Powell Point, Texas
Current Conditions -  °F | °C
As of 1:15 PM on Friday 21 Nov 2014 (Local Time) from KARM Reporting Station
Overcast Overcast  
Wind Chill: 70°   Ceiling: 3200
Heat Index: 70°   Visibility: 10mi
Dew Point: 66°   Wind: 14mph
Humidity: 87%   Direction: 120°ESE
Pressure: 30.08"   Gusts: 17mph
Location:  29.4506°N, 96.0068°W
Report Text: KARM 211915Z AUTO 12012G15KT 10SM SCT026 BKN032 OVC042 21/19 A3008 RMK AO2 T02130190
Loading
Personal Weather Stations






























Interactive Weather Map New forecast layout! Learn more

10-Day Weather Forecast

Advertisements
Track Severe Weather on mobile